createdAt,value
2018-04-25T00:01:59.685Z,52.30
2018-04-25T00:04:27.226Z,52.30
2018-04-25T00:06:54.811Z,52.40
2018-04-25T00:09:22.349Z,52.50
2018-04-25T00:14:30.978Z,52.60
2018-04-25T00:16:58.511Z,52.70
2018-04-25T00:19:26.088Z,52.80
2018-04-25T00:21:53.623Z,52.80
2018-04-25T00:24:21.976Z,52.90
2018-04-25T00:26:49.568Z,52.90
2018-04-25T00:29:17.107Z,52.70
2018-04-25T00:31:45.420Z,53.80
2018-04-25T00:34:12.995Z,53.10
2018-04-25T00:36:40.534Z,53.20
2018-04-25T00:39:08.368Z,53.30
2018-04-25T00:41:35.896Z,53.40
2018-04-25T00:44:03.451Z,53.50
2018-04-25T00:46:31.026Z,53.60
2018-04-25T00:48:58.559Z,53.60
2018-04-25T00:51:26.130Z,53.70
2018-04-25T00:53:53.663Z,53.70
2018-04-25T00:56:21.237Z,53.90
2018-04-25T00:58:48.778Z,53.90
2018-04-25T01:01:16.307Z,53.90
2018-04-25T01:03:43.882Z,54.00
2018-04-25T01:06:12.192Z,54.20
2018-04-25T01:08:39.731Z,54.10
2018-04-25T01:11:07.299Z,54.20
2018-04-25T01:13:34.826Z,54.30
2018-04-25T01:16:02.398Z,54.40
2018-04-25T01:18:30.706Z,54.50
2018-04-25T01:20:58.240Z,54.40
2018-04-25T01:23:26.583Z,54.60
2018-04-25T01:26:01.262Z,54.70
2018-04-25T01:28:50.663Z,54.70
2018-04-25T01:31:18.203Z,54.70
2018-04-25T01:34:00.555Z,54.70
2018-04-25T01:36:32.718Z,54.80
2018-04-25T01:39:10.184Z,54.90
2018-04-25T01:41:52.624Z,54.90
2018-04-25T01:44:22.434Z,55.10
2018-04-25T01:46:50.872Z,55.10
2018-04-25T01:49:34.099Z,55.10
2018-04-25T01:52:13.455Z,55.20
2018-04-25T01:54:52.704Z,55.30
2018-04-25T01:57:32.317Z,55.40
2018-04-25T02:00:11.746Z,55.30
2018-04-25T02:02:38.786Z,55.50
2018-04-25T02:05:06.374Z,55.50
2018-04-25T02:07:33.906Z,55.60
2018-04-25T02:10:01.479Z,55.70
2018-04-25T02:12:29.010Z,55.80
2018-04-25T02:14:57.321Z,56.00
2018-04-25T02:17:24.912Z,55.90
2018-04-25T02:19:52.445Z,56.00
2018-04-25T02:22:19.982Z,56.20
2018-04-25T02:24:47.554Z,56.20
2018-04-25T02:27:15.112Z,56.20
2018-04-25T02:29:42.687Z,56.40
2018-04-25T02:32:10.260Z,56.50
2018-04-25T02:34:37.821Z,56.60
2018-04-25T02:37:05.368Z,56.50
2018-04-25T02:39:32.967Z,56.70
2018-04-25T02:42:00.547Z,56.70
2018-04-25T02:44:28.855Z,56.80
2018-04-25T02:46:56.426Z,56.90
2018-04-25T02:49:23.962Z,56.80
2018-04-25T02:51:51.535Z,57.00
2018-04-25T02:54:19.083Z,57.00
2018-04-25T02:56:46.653Z,57.10
2018-04-25T02:59:14.189Z,57.20
2018-04-25T03:01:42.535Z,57.30
2018-04-25T03:04:10.074Z,57.20
2018-04-25T03:06:37.649Z,57.40
2018-04-25T03:09:05.231Z,57.50
2018-04-25T03:11:32.811Z,57.50
2018-04-25T03:14:01.151Z,57.60
2018-04-25T03:16:28.686Z,57.60
2018-04-25T03:18:56.267Z,57.70
2018-04-25T03:21:23.802Z,57.70
2018-04-25T03:23:51.342Z,57.80
2018-04-25T03:26:18.909Z,57.80
2018-04-25T03:28:46.453Z,57.90
2018-04-25T03:31:14.799Z,58.00
2018-04-25T03:33:43.098Z,58.00
2018-04-25T03:36:11.436Z,58.10
2018-04-25T03:38:38.973Z,58.10
2018-04-25T03:41:06.558Z,58.10
2018-04-25T03:43:34.115Z,58.00
2018-04-25T03:46:01.684Z,58.00
2018-04-25T03:48:29.218Z,58.20
2018-04-25T03:50:56.790Z,58.20
2018-04-25T03:53:24.362Z,58.20
2018-04-25T03:55:51.931Z,58.30
2018-04-25T03:58:20.239Z,58.30
2018-04-25T04:00:48.572Z,58.40
2018-04-25T04:03:16.146Z,58.30
2018-04-25T04:05:43.679Z,58.40
2018-04-25T04:08:11.221Z,58.50
2018-04-25T04:10:38.790Z,58.50
2018-04-25T04:13:06.394Z,58.50
2018-04-25T04:15:33.918Z,58.50
2018-04-25T04:18:01.454Z,58.60
2018-04-25T04:20:29.027Z,59.20
2018-04-25T04:22:56.597Z,58.70
2018-04-25T04:25:24.140Z,58.60
2018-04-25T04:27:51.717Z,58.80
2018-04-25T04:30:19.247Z,58.70
2018-04-25T04:32:46.814Z,58.80
2018-04-25T04:35:14.386Z,58.90
2018-04-25T04:37:41.958Z,58.90
2018-04-25T04:40:09.503Z,58.90
2018-04-25T04:42:37.089Z,59.00
2018-04-25T04:45:04.631Z,59.00
2018-04-25T04:47:32.170Z,59.00
2018-04-25T04:49:59.755Z,59.10
2018-04-25T04:52:27.293Z,59.10
2018-04-25T04:54:54.870Z,59.10
2018-04-25T04:57:22.431Z,59.10
2018-04-25T04:59:50.044Z,59.20
2018-04-25T05:02:17.605Z,59.20
2018-04-25T05:04:45.169Z,59.30
2018-04-25T05:07:13.474Z,59.50
2018-04-25T05:09:41.052Z,59.40
2018-04-25T05:12:08.596Z,59.40
2018-04-25T05:14:36.179Z,59.40
2018-04-25T05:17:03.727Z,59.40
2018-04-25T05:19:32.074Z,59.40
2018-04-25T05:22:00.409Z,59.40
2018-04-25T05:24:28.041Z,59.40
2018-04-25T05:26:55.517Z,59.50
2018-04-25T05:29:23.088Z,59.40
2018-04-25T05:31:50.724Z,59.30
2018-04-25T05:34:18.238Z,59.40
2018-04-25T05:36:45.765Z,59.40
2018-04-25T05:39:13.343Z,59.50
2018-04-25T05:41:40.920Z,59.50
2018-04-25T05:44:08.495Z,59.50
2018-04-25T05:46:36.798Z,59.70
2018-04-25T05:49:04.372Z,59.60
2018-04-25T05:51:31.940Z,59.60
2018-04-25T05:53:59.505Z,59.60
2018-04-25T05:56:27.158Z,59.80
2018-04-25T05:58:55.564Z,60.10
2018-04-25T06:01:23.144Z,60.00
2018-04-25T06:03:51.449Z,60.30
2018-04-25T06:06:19.035Z,59.80
2018-04-25T06:08:46.574Z,59.70
2018-04-25T06:11:14.118Z,59.60
2018-04-25T06:13:42.455Z,59.40
2018-04-25T06:16:10.038Z,59.40
2018-04-25T06:18:37.573Z,59.30
2018-04-25T06:21:05.141Z,59.40
2018-04-25T06:23:32.676Z,59.30
2018-04-25T06:26:00.259Z,59.40
2018-04-25T06:28:27.831Z,59.30
2018-04-25T06:30:55.366Z,59.40
2018-04-25T06:33:22.943Z,59.40
2018-04-25T06:35:50.478Z,59.40
2018-04-25T06:38:18.047Z,59.40
2018-04-25T06:40:45.618Z,59.40
2018-04-25T06:43:13.155Z,59.40
2018-04-25T06:45:40.722Z,59.50
2018-04-25T06:48:08.279Z,59.50
2018-04-25T06:50:35.859Z,59.50
2018-04-25T06:53:03.399Z,59.50
2018-04-25T06:55:30.969Z,59.50
2018-04-25T06:57:58.500Z,59.50
2018-04-25T07:00:26.073Z,59.50
2018-04-25T07:02:53.607Z,59.40
2018-04-25T07:05:21.187Z,59.40
2018-04-25T07:07:48.724Z,59.40
2018-04-25T07:10:16.262Z,59.40
2018-04-25T07:12:44.603Z,60.00
2018-04-25T07:15:12.177Z,59.40
2018-04-25T07:17:40.563Z,60.00
2018-04-25T07:20:08.140Z,59.40
2018-04-25T07:22:36.672Z,59.40
2018-04-25T07:25:04.253Z,59.30
2018-04-25T07:27:31.819Z,59.40
2018-04-25T07:29:59.410Z,59.30
2018-04-25T07:32:27.707Z,59.20
2018-04-25T07:34:55.246Z,59.20
2018-04-25T07:37:23.586Z,59.10
2018-04-25T07:39:51.131Z,59.10
2018-04-25T07:42:18.711Z,59.10
2018-04-25T07:44:46.288Z,59.10
2018-04-25T07:47:13.824Z,59.10
2018-04-25T07:49:41.397Z,58.90
2018-04-25T07:52:08.933Z,58.90
2018-04-25T07:54:36.518Z,58.90
2018-04-25T07:57:04.055Z,58.80
2018-04-25T07:59:31.632Z,58.80
2018-04-25T08:01:59.187Z,58.80
2018-04-25T08:04:26.730Z,58.80
2018-04-25T08:06:54.307Z,58.70
2018-04-25T08:09:21.837Z,58.70
2018-04-25T08:11:49.415Z,58.60
2018-04-25T08:14:28.826Z,58.50
2018-04-25T08:17:08.169Z,58.60
2018-04-25T08:19:49.357Z,58.50
2018-04-25T08:22:16.934Z,58.40
2018-04-25T08:24:44.510Z,58.30
2018-04-25T08:27:12.095Z,58.40
2018-04-25T08:29:39.667Z,58.30
2018-04-25T08:32:07.967Z,58.30
2018-04-25T08:34:35.548Z,58.10
2018-04-25T08:37:03.165Z,58.20
2018-04-25T08:39:31.483Z,57.90
2018-04-25T08:41:59.129Z,57.90
2018-04-25T08:44:26.701Z,57.80
2018-04-25T08:46:54.369Z,57.70
2018-04-25T08:49:21.946Z,57.60
2018-04-25T08:51:49.478Z,57.40
2018-04-25T08:54:17.030Z,57.40
2018-04-25T08:56:44.567Z,57.40
2018-04-25T08:59:12.916Z,57.00
2018-04-25T09:01:40.462Z,57.00
2018-04-25T09:04:09.573Z,56.80
2018-04-25T09:06:37.186Z,56.80
2018-04-25T09:09:04.863Z,56.90
2018-04-25T09:11:32.515Z,56.60
2018-04-25T09:14:00.067Z,56.50
2018-04-25T09:16:28.679Z,56.40
2018-04-25T09:18:56.257Z,56.10
2018-04-25T09:21:23.930Z,55.90
2018-04-25T09:23:51.469Z,55.80
2018-04-25T09:26:19.006Z,55.40
2018-04-25T09:28:46.579Z,55.20
2018-04-25T09:31:14.113Z,55.10
2018-04-25T09:33:41.674Z,55.20
2018-04-25T09:36:09.207Z,54.70
2018-04-25T09:38:36.779Z,55.00
2018-04-25T09:41:05.119Z,55.20
2018-04-25T09:43:32.659Z,55.10
2018-04-25T09:46:00.253Z,54.60
2018-04-25T09:48:27.842Z,54.60
2018-04-25T09:50:57.098Z,53.80
2018-04-25T09:53:24.665Z,53.70
2018-04-25T09:55:52.198Z,53.30
2018-04-25T09:58:19.737Z,53.00
2018-04-25T10:00:53.024Z,52.40
2018-04-25T10:03:23.392Z,53.10
2018-04-25T10:05:50.961Z,52.20
2018-04-25T10:08:18.497Z,52.30
2018-04-25T10:10:46.082Z,51.60
2018-04-25T10:13:13.661Z,51.30
2018-04-25T10:15:41.229Z,50.60
2018-04-25T10:18:09.561Z,51.00
2018-04-25T10:20:37.137Z,50.40
2018-04-25T10:23:04.676Z,50.50
2018-04-25T10:25:32.262Z,49.60
2018-04-25T10:27:59.807Z,49.60
2018-04-25T10:30:27.441Z,49.40
2018-04-25T10:32:54.987Z,49.10
2018-04-25T10:35:23.287Z,48.40
2018-04-25T10:37:50.828Z,48.30
2018-04-25T10:40:18.406Z,47.70
2018-04-25T10:42:45.943Z,47.10
2018-04-25T10:45:14.277Z,47.20
2018-04-25T10:47:41.881Z,47.20
2018-04-25T10:50:10.298Z,46.90
2018-04-25T10:52:37.830Z,46.90
2018-04-25T10:55:06.166Z,47.90
2018-04-25T10:57:33.701Z,47.80
2018-04-25T11:00:01.293Z,48.20
2018-04-25T11:02:28.911Z,48.30
2018-04-25T11:04:56.433Z,48.40
2018-04-25T11:07:24.776Z,47.10
2018-04-25T11:09:52.327Z,47.10
2018-04-25T11:12:19.902Z,46.80
2018-04-25T11:14:47.438Z,46.80
2018-04-25T11:17:15.016Z,47.00
2018-04-25T11:19:42.555Z,46.70
2018-04-25T11:22:10.125Z,47.00
2018-04-25T11:24:37.776Z,46.90
2018-04-25T11:27:05.310Z,47.10
2018-04-25T11:29:32.890Z,46.80
2018-04-25T11:32:00.508Z,46.30
2018-04-25T11:34:28.029Z,45.70
2018-04-25T11:36:55.607Z,46.30
2018-04-25T11:39:23.144Z,46.20
2018-04-25T11:41:50.717Z,45.70
2018-04-25T11:44:18.256Z,45.40
2018-04-25T11:46:45.827Z,45.00
2018-04-25T11:49:13.365Z,44.20
2018-04-25T11:51:40.947Z,43.70
2018-04-25T11:54:08.510Z,43.70
2018-04-25T11:56:36.043Z,43.50
2018-04-25T11:59:03.621Z,43.90
2018-04-25T12:01:31.162Z,44.30
2018-04-25T12:03:58.749Z,44.40
2018-04-25T12:06:26.292Z,43.80
2018-04-25T12:08:54.032Z,43.40
2018-04-25T12:11:22.336Z,43.90
2018-04-25T12:13:49.911Z,43.90
2018-04-25T12:16:17.486Z,44.80
2018-04-25T12:18:45.026Z,44.90
2018-04-25T12:21:12.581Z,45.40
2018-04-25T12:23:40.153Z,45.50
2018-04-25T12:26:07.702Z,45.20
2018-04-25T12:28:35.332Z,44.90
2018-04-25T12:31:02.875Z,44.90
2018-04-25T12:33:30.419Z,45.40
2018-04-25T12:35:57.993Z,45.30
2018-04-25T12:38:25.582Z,44.90
2018-04-25T12:40:53.135Z,44.50
2018-04-25T12:43:21.446Z,45.00
2018-04-25T12:45:49.022Z,45.00
2018-04-25T12:48:16.583Z,45.20
2018-04-25T12:50:44.164Z,45.40
2018-04-25T12:53:11.703Z,45.40
2018-04-25T12:55:39.322Z,45.30
2018-04-25T12:58:06.908Z,45.40
2018-04-25T13:00:34.492Z,44.90
2018-04-25T13:03:02.029Z,45.80
2018-04-25T13:05:29.602Z,45.50
2018-04-25T13:07:57.183Z,45.50
2018-04-25T13:10:24.707Z,45.40
2018-04-25T13:12:52.288Z,44.60
2018-04-25T13:15:19.830Z,45.20
2018-04-25T13:17:47.413Z,45.00
2018-04-25T13:20:14.954Z,44.70
2018-04-25T13:22:42.531Z,44.90
2018-04-25T13:25:10.120Z,44.80
2018-04-25T13:27:37.671Z,44.20
2018-04-25T13:30:05.202Z,43.20
2018-04-25T13:32:32.784Z,43.70
2018-04-25T13:35:00.367Z,43.10
2018-04-25T13:37:28.707Z,44.20
2018-04-25T13:39:56.275Z,44.20
2018-04-25T13:42:23.810Z,43.60
2018-04-25T13:44:51.385Z,42.50
2018-04-25T13:47:18.948Z,43.70
2018-04-25T13:49:46.530Z,43.90
2018-04-25T13:52:14.071Z,44.10
2018-04-25T13:54:42.410Z,44.10
2018-04-25T13:57:09.958Z,44.20
2018-04-25T13:59:38.299Z,43.30
2018-04-25T14:02:05.841Z,43.30
2018-04-25T14:04:33.417Z,43.50
2018-04-25T14:07:00.990Z,43.90
2018-04-25T14:09:28.530Z,43.70
2018-04-25T14:11:56.103Z,43.10
2018-04-25T14:14:23.651Z,43.60
2018-04-25T14:16:51.384Z,43.40
2018-04-25T14:19:18.924Z,43.70
2018-04-25T14:21:47.227Z,43.70
2018-04-25T14:24:14.798Z,43.70
2018-04-25T14:26:42.374Z,43.60
2018-04-25T14:29:11.565Z,42.80
2018-04-25T14:31:39.103Z,43.00
2018-04-25T14:34:08.513Z,43.30
2018-04-25T14:36:36.096Z,43.00
2018-04-25T14:39:03.643Z,43.40
2018-04-25T14:41:31.226Z,43.50
2018-04-25T14:43:58.761Z,43.30
2018-04-25T14:46:26.356Z,43.60
2018-04-25T14:48:53.898Z,43.70
2018-04-25T14:51:21.441Z,43.50
2018-04-25T14:53:49.101Z,43.50
2018-04-25T14:56:16.763Z,44.00
2018-04-25T14:58:44.304Z,43.90
2018-04-25T15:01:11.877Z,43.80
2018-04-25T15:03:39.410Z,43.50
2018-04-25T15:06:07.806Z,43.40
2018-04-25T15:08:35.367Z,43.50
2018-04-25T15:11:02.944Z,43.50
2018-04-25T15:13:30.517Z,44.10
2018-04-25T15:15:58.096Z,43.20
2018-04-25T15:18:27.145Z,41.00
2018-04-25T15:20:54.714Z,41.00
2018-04-25T15:23:22.257Z,42.40
2018-04-25T15:25:49.831Z,42.30
2018-04-25T15:28:17.367Z,42.80
2018-04-25T15:30:45.715Z,43.30
2018-04-25T15:33:13.257Z,43.30
2018-04-25T15:35:40.835Z,43.40
2018-04-25T15:38:08.375Z,42.90
2018-04-25T15:40:35.944Z,43.00
2018-04-25T15:43:03.501Z,43.10
2018-04-25T15:45:31.053Z,43.10
2018-04-25T15:47:58.624Z,43.20
2018-04-25T15:50:26.169Z,43.20
2018-04-25T15:52:53.739Z,43.30
2018-04-25T15:55:21.276Z,43.60
2018-04-25T15:57:48.944Z,43.20
2018-04-25T16:00:16.489Z,43.00
2018-04-25T16:02:44.066Z,43.30
2018-04-25T16:05:11.603Z,43.70
2018-04-25T16:07:39.172Z,43.50
2018-04-25T16:10:06.709Z,43.40
2018-04-25T16:12:35.079Z,42.90
2018-04-25T16:15:02.603Z,42.90
2018-04-25T16:17:30.188Z,43.20
2018-04-25T16:19:57.722Z,43.40
2018-04-25T16:22:25.298Z,43.60
2018-04-25T16:24:52.876Z,43.40
2018-04-25T16:27:20.414Z,43.50
2018-04-25T16:29:47.989Z,43.60
2018-04-25T16:32:15.608Z,43.70
2018-04-25T16:34:43.183Z,43.70
2018-04-25T16:37:10.750Z,43.90
2018-04-25T16:39:38.281Z,43.70
2018-04-25T16:42:05.854Z,43.80
2018-04-25T16:44:33.456Z,44.10
2018-04-25T16:47:01.010Z,44.00
2018-04-25T16:49:28.549Z,44.00
2018-04-25T16:51:56.090Z,44.00
2018-04-25T16:54:23.662Z,44.10
2018-04-25T16:56:51.193Z,44.20
2018-04-25T16:59:18.775Z,44.30
2018-04-25T17:01:46.311Z,44.50
2018-04-25T17:04:13.869Z,44.40
2018-04-25T17:06:41.439Z,44.50
2018-04-25T17:09:09.012Z,44.50
2018-04-25T17:11:36.545Z,44.50
2018-04-25T17:14:04.116Z,44.60
2018-04-25T17:16:31.660Z,44.50
2018-04-25T17:18:59.997Z,44.60
2018-04-25T17:21:27.533Z,44.60
2018-04-25T17:23:55.122Z,45.40
2018-04-25T17:26:22.658Z,44.70
2018-04-25T17:28:50.275Z,44.90
2018-04-25T17:31:17.785Z,45.00
2018-04-25T17:33:45.346Z,45.30
2018-04-25T17:36:12.926Z,45.10
2018-04-25T17:38:40.461Z,45.10
2018-04-25T17:41:07.994Z,45.40
2018-04-25T17:43:35.575Z,45.50
2018-04-25T17:46:03.147Z,45.50
2018-04-25T17:48:30.674Z,45.30
2018-04-25T17:50:58.218Z,45.30
2018-04-25T17:53:26.561Z,45.60
2018-04-25T17:55:54.091Z,45.60
2018-04-25T17:58:21.661Z,45.50
2018-04-25T18:00:49.234Z,45.70
2018-04-25T18:03:18.289Z,45.60
2018-04-25T18:05:45.832Z,45.80
2018-04-25T18:08:14.174Z,45.90
2018-04-25T18:10:41.748Z,45.90
2018-04-25T18:13:09.281Z,46.10
2018-04-25T18:15:36.860Z,46.00
2018-04-25T18:18:04.397Z,46.10
2018-04-25T18:20:31.975Z,46.00
2018-04-25T18:22:59.510Z,46.10
2018-04-25T18:25:27.077Z,46.40
2018-04-25T18:27:54.609Z,47.00
2018-04-25T18:30:22.221Z,46.50
2018-04-25T18:32:49.793Z,46.40
2018-04-25T18:35:18.847Z,46.70
2018-04-25T18:37:46.387Z,46.60
2018-04-25T18:40:13.955Z,46.60
2018-04-25T18:42:41.495Z,46.90
2018-04-25T18:45:10.007Z,47.00
2018-04-25T18:47:37.557Z,47.00
2018-04-25T18:50:05.136Z,47.20
2018-04-25T18:52:32.668Z,47.20
2018-04-25T18:55:00.242Z,47.00
2018-04-25T18:57:27.782Z,46.90
2018-04-25T18:59:55.470Z,47.10
2018-04-25T19:02:23.039Z,47.30
2018-04-25T19:04:50.589Z,47.20
2018-04-25T19:07:19.436Z,47.30
2018-04-25T19:09:47.742Z,47.30
2018-04-25T19:12:15.323Z,47.30
2018-04-25T19:14:42.857Z,47.40
2018-04-25T19:17:10.459Z,47.30
2018-04-25T19:19:38.027Z,47.50
2018-04-25T19:22:07.046Z,47.30
2018-04-25T19:24:35.344Z,48.00
2018-04-25T19:27:03.644Z,47.40
2018-04-25T19:29:31.224Z,47.30
2018-04-25T19:31:58.783Z,47.40
2018-04-25T19:34:27.874Z,47.50
2018-04-25T19:36:55.444Z,47.50
2018-04-25T19:39:23.012Z,47.70
2018-04-25T19:41:50.533Z,47.70
2018-04-25T19:44:18.114Z,47.60
2018-04-25T19:46:45.748Z,47.70
2018-04-25T19:49:13.314Z,47.80
2018-04-25T19:51:40.850Z,47.90
2018-04-25T19:54:09.181Z,48.00
2018-04-25T19:56:36.726Z,48.60
2018-04-25T19:59:04.303Z,48.10
2018-04-25T20:01:31.843Z,48.20
2018-04-25T20:03:59.414Z,48.20
2018-04-25T20:06:26.984Z,48.20
2018-04-25T20:08:54.551Z,48.30
2018-04-25T20:11:22.087Z,48.40
2018-04-25T20:13:49.739Z,48.50
2018-04-25T20:16:17.312Z,48.50
2018-04-25T20:18:44.895Z,48.50
2018-04-25T20:21:12.438Z,48.60
2018-04-25T20:23:39.998Z,48.70
2018-04-25T20:26:07.568Z,48.70
2018-04-25T20:28:35.107Z,48.70
2018-04-25T20:31:02.675Z,48.80
2018-04-25T20:33:30.218Z,48.80
2018-04-25T20:35:57.809Z,48.80
2018-04-25T20:38:25.341Z,48.90
2018-04-25T20:40:52.868Z,48.90
2018-04-25T20:43:21.200Z,49.00
2018-04-25T20:45:48.734Z,48.90
2018-04-25T20:48:16.309Z,49.00
2018-04-25T20:50:43.838Z,49.00
2018-04-25T20:53:13.968Z,49.10
2018-04-25T20:55:41.506Z,49.10
2018-04-25T20:58:09.843Z,50.00
2018-04-25T21:00:37.379Z,49.70
2018-04-25T21:03:04.958Z,50.10
2018-04-25T21:05:32.499Z,50.40
2018-04-25T21:08:00.076Z,50.80
2018-04-25T21:10:27.646Z,51.00
2018-04-25T21:12:55.184Z,51.20
2018-04-25T21:15:22.783Z,51.60
2018-04-25T21:17:50.320Z,51.90
2018-04-25T21:20:17.869Z,52.00
2018-04-25T21:22:45.439Z,52.30
2018-04-25T21:25:12.972Z,52.40
2018-04-25T21:27:40.546Z,52.70
2018-04-25T21:30:08.082Z,53.00
2018-04-25T21:32:36.427Z,53.40
2018-04-25T21:35:03.969Z,53.40
2018-04-25T21:37:31.547Z,53.60
2018-04-25T21:39:59.088Z,53.90
2018-04-25T21:42:26.662Z,54.00
2018-04-25T21:44:54.243Z,54.20
2018-04-25T21:47:21.827Z,54.20
2018-04-25T21:49:49.366Z,54.90
2018-04-25T21:52:17.695Z,54.50
2018-04-25T21:54:45.272Z,54.40
2018-04-25T21:57:12.813Z,54.50
2018-04-25T21:59:40.387Z,54.80
2018-04-25T22:02:07.924Z,55.00
2018-04-25T22:04:35.491Z,55.10
2018-04-25T22:07:03.065Z,55.00
2018-04-25T22:09:30.594Z,55.20
2018-04-25T22:11:58.126Z,55.20
2018-04-25T22:14:26.483Z,56.00
2018-04-25T22:16:54.023Z,55.30
2018-04-25T22:19:21.619Z,55.70
2018-04-25T22:21:49.145Z,55.90
2018-04-25T22:24:16.717Z,56.20
2018-04-25T22:26:44.275Z,56.30
2018-04-25T22:29:11.845Z,56.50
2018-04-25T22:31:39.386Z,56.80
2018-04-25T22:34:06.943Z,57.10
2018-04-25T22:36:34.475Z,57.20
2018-04-25T22:39:02.059Z,57.20
2018-04-25T22:41:29.599Z,57.40
2018-04-25T22:43:57.138Z,57.50
2018-04-25T22:46:25.473Z,57.90
2018-04-25T22:48:53.010Z,57.70
2018-04-25T22:51:20.583Z,57.90
2018-04-25T22:53:48.146Z,57.80
2018-04-25T22:56:15.724Z,57.80
2018-04-25T22:58:43.299Z,57.80
2018-04-25T23:01:11.604Z,58.80
2018-04-25T23:03:39.174Z,57.90
2018-04-25T23:06:06.710Z,57.80
2018-04-25T23:08:35.042Z,57.90
2018-04-25T23:11:02.615Z,57.90
2018-04-25T23:13:30.151Z,58.00
2018-04-25T23:15:57.721Z,57.90
2018-04-25T23:18:25.261Z,57.90
2018-04-25T23:20:52.833Z,57.90
2018-04-25T23:23:20.362Z,57.90
2018-04-25T23:25:47.928Z,58.00
2018-04-25T23:28:15.498Z,58.00
2018-04-25T23:30:43.072Z,58.00
2018-04-25T23:33:10.630Z,58.20
2018-04-25T23:35:38.188Z,58.20
2018-04-25T23:38:05.718Z,58.40
2018-04-25T23:40:34.055Z,58.60
2018-04-25T23:43:01.638Z,58.50
2018-04-25T23:45:29.217Z,58.60
2018-04-25T23:47:57.564Z,58.50
2018-04-25T23:50:25.101Z,58.50
2018-04-25T23:52:52.634Z,58.70
2018-04-25T23:55:20.184Z,58.80
2018-04-25T23:57:47.714Z,58.90
